sensor_id;sensor_type;location;lat;lon;timestamp;P1;durP1;ratioP1;P2;durP2;ratioP2
51949;SDS011;37974;53.218;6.640;2023-03-13T00:00:52;37.58;;;6.13;;
51949;SDS011;37974;53.218;6.640;2023-03-13T00:03:19;36.10;;;6.40;;
51949;SDS011;37974;53.218;6.640;2023-03-13T00:05:45;36.47;;;6.18;;
51949;SDS011;37974;53.218;6.640;2023-03-13T00:08:11;29.13;;;6.43;;
51949;SDS011;37974;53.218;6.640;2023-03-13T00:10:37;44.38;;;6.65;;
51949;SDS011;37974;53.218;6.640;2023-03-13T00:13:03;37.25;;;6.10;;
51949;SDS011;37974;53.218;6.640;2023-03-13T00:15:29;43.03;;;7.07;;
51949;SDS011;37974;53.218;6.640;2023-03-13T00:17:55;41.95;;;7.05;;
51949;SDS011;37974;53.218;6.640;2023-03-13T00:20:21;34.05;;;7.38;;
51949;SDS011;37974;53.218;6.640;2023-03-13T00:22:47;41.78;;;7.00;;
51949;SDS011;37974;53.218;6.640;2023-03-13T00:25:12;40.58;;;6.93;;
51949;SDS011;37974;53.218;6.640;2023-03-13T00:27:38;44.15;;;8.38;;
51949;SDS011;37974;53.218;6.640;2023-03-13T00:30:04;41.05;;;6.47;;
51949;SDS011;37974;53.218;6.640;2023-03-13T00:32:30;40.50;;;7.05;;
51949;SDS011;37974;53.218;6.640;2023-03-13T00:34:56;42.83;;;7.13;;
51949;SDS011;37974;53.218;6.640;2023-03-13T00:37:21;38.05;;;6.45;;
51949;SDS011;37974;53.218;6.640;2023-03-13T00:39:47;43.38;;;7.05;;
51949;SDS011;37974;53.218;6.640;2023-03-13T00:42:13;39.22;;;6.93;;
51949;SDS011;37974;53.218;6.640;2023-03-13T00:44:38;45.40;;;7.90;;
51949;SDS011;37974;53.218;6.640;2023-03-13T00:47:04;41.38;;;7.25;;
51949;SDS011;37974;53.218;6.640;2023-03-13T00:49:31;42.88;;;7.88;;
51949;SDS011;37974;53.218;6.640;2023-03-13T00:51:57;40.50;;;7.05;;
51949;SDS011;37974;53.218;6.640;2023-03-13T00:54:23;39.38;;;7.70;;
51949;SDS011;37974;53.218;6.640;2023-03-13T00:56:49;46.88;;;8.10;;
51949;SDS011;37974;53.218;6.640;2023-03-13T00:59:15;44.30;;;8.77;;
51949;SDS011;37974;53.218;6.640;2023-03-13T01:01:40;42.15;;;7.07;;
51949;SDS011;37974;53.218;6.640;2023-03-13T01:04:07;38.35;;;6.82;;
51949;SDS011;37974;53.218;6.640;2023-03-13T01:06:36;53.88;;;9.23;;
51949;SDS011;37974;53.218;6.640;2023-03-13T01:09:04;37.70;;;6.45;;
51949;SDS011;37974;53.218;6.640;2023-03-13T01:11:32;49.40;;;8.18;;
51949;SDS011;37974;53.218;6.640;2023-03-13T01:14:03;47.75;;;8.52;;
51949;SDS011;37974;53.218;6.640;2023-03-13T01:16:32;42.45;;;7.25;;
51949;SDS011;37974;53.218;6.640;2023-03-13T01:19:00;44.20;;;7.53;;
51949;SDS011;37974;53.218;6.640;2023-03-13T01:21:27;44.63;;;7.50;;
51949;SDS011;37974;53.218;6.640;2023-03-13T01:23:53;50.42;;;7.93;;
51949;SDS011;37974;53.218;6.640;2023-03-13T01:26:19;45.05;;;7.07;;
51949;SDS011;37974;53.218;6.640;2023-03-13T01:28:45;39.00;;;7.80;;
51949;SDS011;37974;53.218;6.640;2023-03-13T01:31:12;39.90;;;6.97;;
51949;SDS011;37974;53.218;6.640;2023-03-13T01:33:39;44.13;;;7.50;;
51949;SDS011;37974;53.218;6.640;2023-03-13T01:36:05;40.00;;;7.07;;
51949;SDS011;37974;53.218;6.640;2023-03-13T01:38:32;46.85;;;7.65;;
51949;SDS011;37974;53.218;6.640;2023-03-13T01:40:58;36.17;;;6.25;;
51949;SDS011;37974;53.218;6.640;2023-03-13T01:43:26;43.65;;;7.15;;
51949;SDS011;37974;53.218;6.640;2023-03-13T01:48:19;37.17;;;7.38;;
51949;SDS011;37974;53.218;6.640;2023-03-13T01:50:50;46.15;;;7.47;;
51949;SDS011;37974;53.218;6.640;2023-03-13T01:53:24;39.78;;;7.85;;
51949;SDS011;37974;53.218;6.640;2023-03-13T01:55:52;50.15;;;7.25;;
51949;SDS011;37974;53.218;6.640;2023-03-13T01:58:19;33.47;;;6.57;;
51949;SDS011;37974;53.218;6.640;2023-03-13T02:00:46;36.40;;;6.97;;
51949;SDS011;37974;53.218;6.640;2023-03-13T02:03:13;42.88;;;7.80;;
51949;SDS011;37974;53.218;6.640;2023-03-13T02:05:42;47.63;;;6.63;;
51949;SDS011;37974;53.218;6.640;2023-03-13T02:08:20;36.20;;;6.25;;
51949;SDS011;37974;53.218;6.640;2023-03-13T02:10:57;37.67;;;6.63;;
51949;SDS011;37974;53.218;6.640;2023-03-13T02:13:39;37.10;;;6.65;;
51949;SDS011;37974;53.218;6.640;2023-03-13T02:16:05;39.80;;;7.10;;
51949;SDS011;37974;53.218;6.640;2023-03-13T02:18:31;39.55;;;6.70;;
51949;SDS011;37974;53.218;6.640;2023-03-13T02:21:00;36.95;;;6.88;;
51949;SDS011;37974;53.218;6.640;2023-03-13T02:23:35;45.28;;;7.00;;
51949;SDS011;37974;53.218;6.640;2023-03-13T02:26:06;33.45;;;7.38;;
51949;SDS011;37974;53.218;6.640;2023-03-13T02:28:33;47.30;;;8.00;;
51949;SDS011;37974;53.218;6.640;2023-03-13T02:31:03;38.92;;;8.15;;
51949;SDS011;37974;53.218;6.640;2023-03-13T02:33:30;30.10;;;6.60;;
51949;SDS011;37974;53.218;6.640;2023-03-13T02:36:00;40.25;;;7.82;;
51949;SDS011;37974;53.218;6.640;2023-03-13T02:38:33;43.00;;;7.65;;
51949;SDS011;37974;53.218;6.640;2023-03-13T02:41:01;38.13;;;6.80;;
51949;SDS011;37974;53.218;6.640;2023-03-13T02:43:30;40.50;;;7.13;;
51949;SDS011;37974;53.218;6.640;2023-03-13T02:46:00;37.72;;;7.30;;
51949;SDS011;37974;53.218;6.640;2023-03-13T02:48:31;34.63;;;6.45;;
51949;SDS011;37974;53.218;6.640;2023-03-13T02:51:01;26.83;;;6.68;;
51949;SDS011;37974;53.218;6.640;2023-03-13T02:53:33;27.70;;;6.68;;
51949;SDS011;37974;53.218;6.640;2023-03-13T02:55:59;31.20;;;5.82;;
51949;SDS011;37974;53.218;6.640;2023-03-13T02:58:25;24.63;;;5.90;;
51949;SDS011;37974;53.218;6.640;2023-03-13T03:00:51;25.27;;;6.65;;
51949;SDS011;37974;53.218;6.640;2023-03-13T03:03:17;22.52;;;5.47;;
51949;SDS011;37974;53.218;6.640;2023-03-13T03:05:43;23.15;;;5.28;;
51949;SDS011;37974;53.218;6.640;2023-03-13T03:08:11;15.70;;;4.95;;
51949;SDS011;37974;53.218;6.640;2023-03-13T03:10:37;21.55;;;5.70;;
51949;SDS011;37974;53.218;6.640;2023-03-13T03:13:03;19.75;;;5.30;;
51949;SDS011;37974;53.218;6.640;2023-03-13T03:15:29;21.42;;;5.00;;
51949;SDS011;37974;53.218;6.640;2023-03-13T03:17:54;15.93;;;4.40;;
51949;SDS011;37974;53.218;6.640;2023-03-13T03:20:29;14.88;;;4.53;;
51949;SDS011;37974;53.218;6.640;2023-03-13T03:22:57;15.07;;;4.43;;
51949;SDS011;37974;53.218;6.640;2023-03-13T03:25:26;13.20;;;3.92;;
51949;SDS011;37974;53.218;6.640;2023-03-13T03:27:52;13.73;;;4.13;;
51949;SDS011;37974;53.218;6.640;2023-03-13T03:30:18;15.25;;;4.45;;
51949;SDS011;37974;53.218;6.640;2023-03-13T03:32:43;9.85;;;3.67;;
51949;SDS011;37974;53.218;6.640;2023-03-13T03:35:09;13.55;;;4.28;;
51949;SDS011;37974;53.218;6.640;2023-03-13T03:37:35;12.93;;;3.80;;
51949;SDS011;37974;53.218;6.640;2023-03-13T03:40:01;12.60;;;4.00;;
51949;SDS011;37974;53.218;6.640;2023-03-13T03:42:29;12.88;;;3.50;;
51949;SDS011;37974;53.218;6.640;2023-03-13T03:44:55;10.85;;;3.65;;
51949;SDS011;37974;53.218;6.640;2023-03-13T03:47:21;11.80;;;3.60;;
51949;SDS011;37974;53.218;6.640;2023-03-13T03:49:46;13.43;;;3.45;;
51949;SDS011;37974;53.218;6.640;2023-03-13T03:52:12;12.25;;;4.13;;
51949;SDS011;37974;53.218;6.640;2023-03-13T03:54:38;12.00;;;3.75;;
51949;SDS011;37974;53.218;6.640;2023-03-13T03:57:07;11.10;;;4.18;;
51949;SDS011;37974;53.218;6.640;2023-03-13T03:59:32;8.57;;;3.45;;
51949;SDS011;37974;53.218;6.640;2023-03-13T04:01:58;8.40;;;3.45;;
51949;SDS011;37974;53.218;6.640;2023-03-13T04:04:24;7.75;;;3.47;;
51949;SDS011;37974;53.218;6.640;2023-03-13T04:06:50;9.57;;;3.50;;
51949;SDS011;37974;53.218;6.640;2023-03-13T04:09:16;8.60;;;3.50;;
51949;SDS011;37974;53.218;6.640;2023-03-13T04:11:41;14.70;;;4.03;;
51949;SDS011;37974;53.218;6.640;2023-03-13T04:14:07;11.43;;;3.60;;
51949;SDS011;37974;53.218;6.640;2023-03-13T04:16:33;10.57;;;4.28;;
51949;SDS011;37974;53.218;6.640;2023-03-13T04:18:59;9.20;;;3.60;;
51949;SDS011;37974;53.218;6.640;2023-03-13T04:21:24;9.63;;;3.80;;
51949;SDS011;37974;53.218;6.640;2023-03-13T04:23:50;8.57;;;3.38;;
51949;SDS011;37974;53.218;6.640;2023-03-13T04:26:16;8.57;;;3.33;;
51949;SDS011;37974;53.218;6.640;2023-03-13T04:28:41;8.43;;;3.60;;
51949;SDS011;37974;53.218;6.640;2023-03-13T04:31:07;10.23;;;3.75;;
51949;SDS011;37974;53.218;6.640;2023-03-13T04:33:33;7.60;;;4.22;;
51949;SDS011;37974;53.218;6.640;2023-03-13T04:36:01;9.80;;;4.78;;
51949;SDS011;37974;53.218;6.640;2023-03-13T04:38:27;11.27;;;6.15;;
51949;SDS011;37974;53.218;6.640;2023-03-13T04:40:52;10.93;;;6.07;;
51949;SDS011;37974;53.218;6.640;2023-03-13T04:43:18;15.98;;;7.68;;
51949;SDS011;37974;53.218;6.640;2023-03-13T04:45:44;13.52;;;7.22;;
51949;SDS011;37974;53.218;6.640;2023-03-13T04:48:10;11.48;;;7.25;;
51949;SDS011;37974;53.218;6.640;2023-03-13T04:50:36;13.32;;;7.00;;
51949;SDS011;37974;53.218;6.640;2023-03-13T04:53:02;13.95;;;7.30;;
51949;SDS011;37974;53.218;6.640;2023-03-13T04:55:31;11.85;;;6.90;;
51949;SDS011;37974;53.218;6.640;2023-03-13T04:57:56;14.38;;;6.88;;
51949;SDS011;37974;53.218;6.640;2023-03-13T05:00:22;15.20;;;7.28;;
51949;SDS011;37974;53.218;6.640;2023-03-13T05:02:48;13.50;;;7.22;;
51949;SDS011;37974;53.218;6.640;2023-03-13T05:05:13;12.27;;;7.68;;
51949;SDS011;37974;53.218;6.640;2023-03-13T05:07:39;17.70;;;7.82;;
51949;SDS011;37974;53.218;6.640;2023-03-13T05:10:05;13.48;;;6.85;;
51949;SDS011;37974;53.218;6.640;2023-03-13T05:12:31;13.45;;;6.88;;
51949;SDS011;37974;53.218;6.640;2023-03-13T05:14:57;11.80;;;6.20;;
51949;SDS011;37974;53.218;6.640;2023-03-13T05:17:22;10.70;;;6.45;;
51949;SDS011;37974;53.218;6.640;2023-03-13T05:19:48;15.05;;;7.35;;
51949;SDS011;37974;53.218;6.640;2023-03-13T05:22:14;14.18;;;7.25;;
51949;SDS011;37974;53.218;6.640;2023-03-13T05:24:40;13.70;;;7.07;;
51949;SDS011;37974;53.218;6.640;2023-03-13T05:27:05;17.10;;;7.72;;
51949;SDS011;37974;53.218;6.640;2023-03-13T05:29:40;16.45;;;7.40;;
51949;SDS011;37974;53.218;6.640;2023-03-13T05:32:15;18.55;;;6.30;;
51949;SDS011;37974;53.218;6.640;2023-03-13T05:34:43;17.88;;;6.70;;
51949;SDS011;37974;53.218;6.640;2023-03-13T05:37:09;14.95;;;5.85;;
51949;SDS011;37974;53.218;6.640;2023-03-13T05:39:34;14.85;;;5.10;;
51949;SDS011;37974;53.218;6.640;2023-03-13T05:42:00;11.70;;;4.53;;
51949;SDS011;37974;53.218;6.640;2023-03-13T05:44:26;14.23;;;5.10;;
51949;SDS011;37974;53.218;6.640;2023-03-13T05:46:51;13.43;;;4.65;;
51949;SDS011;37974;53.218;6.640;2023-03-13T05:49:17;12.82;;;4.85;;
51949;SDS011;37974;53.218;6.640;2023-03-13T05:51:43;20.48;;;5.10;;
51949;SDS011;37974;53.218;6.640;2023-03-13T05:54:08;17.10;;;5.00;;
51949;SDS011;37974;53.218;6.640;2023-03-13T05:56:34;19.23;;;4.57;;
51949;SDS011;37974;53.218;6.640;2023-03-13T05:59:00;11.60;;;3.95;;
51949;SDS011;37974;53.218;6.640;2023-03-13T06:01:26;12.55;;;4.07;;
51949;SDS011;37974;53.218;6.640;2023-03-13T06:03:53;15.63;;;5.10;;
51949;SDS011;37974;53.218;6.640;2023-03-13T06:06:19;15.63;;;4.53;;
51949;SDS011;37974;53.218;6.640;2023-03-13T06:08:45;19.52;;;3.97;;
51949;SDS011;37974;53.218;6.640;2023-03-13T06:11:11;22.05;;;4.60;;
51949;SDS011;37974;53.218;6.640;2023-03-13T06:13:36;16.05;;;4.43;;
51949;SDS011;37974;53.218;6.640;2023-03-13T06:16:02;14.23;;;4.05;;
51949;SDS011;37974;53.218;6.640;2023-03-13T06:18:28;12.80;;;3.53;;
51949;SDS011;37974;53.218;6.640;2023-03-13T06:20:56;13.25;;;4.20;;
51949;SDS011;37974;53.218;6.640;2023-03-13T06:23:23;13.35;;;4.30;;
51949;SDS011;37974;53.218;6.640;2023-03-13T06:25:49;14.45;;;4.15;;
51949;SDS011;37974;53.218;6.640;2023-03-13T06:28:15;17.17;;;4.75;;
51949;SDS011;37974;53.218;6.640;2023-03-13T06:30:43;13.43;;;4.40;;
51949;SDS011;37974;53.218;6.640;2023-03-13T06:33:09;18.27;;;4.65;;
51949;SDS011;37974;53.218;6.640;2023-03-13T06:35:38;18.15;;;5.07;;
51949;SDS011;37974;53.218;6.640;2023-03-13T06:38:05;14.65;;;4.72;;
51949;SDS011;37974;53.218;6.640;2023-03-13T06:40:31;16.95;;;4.63;;
51949;SDS011;37974;53.218;6.640;2023-03-13T06:42:57;21.38;;;5.88;;
51949;SDS011;37974;53.218;6.640;2023-03-13T06:45:23;19.40;;;5.57;;
51949;SDS011;37974;53.218;6.640;2023-03-13T06:47:49;17.20;;;5.07;;
51949;SDS011;37974;53.218;6.640;2023-03-13T06:50:16;16.67;;;5.65;;
51949;SDS011;37974;53.218;6.640;2023-03-13T06:52:42;16.67;;;5.75;;
51949;SDS011;37974;53.218;6.640;2023-03-13T06:55:08;17.55;;;6.03;;
51949;SDS011;37974;53.218;6.640;2023-03-13T06:57:34;14.80;;;5.07;;
51949;SDS011;37974;53.218;6.640;2023-03-13T07:00:00;19.92;;;5.40;;
51949;SDS011;37974;53.218;6.640;2023-03-13T07:02:25;17.50;;;5.53;;
51949;SDS011;37974;53.218;6.640;2023-03-13T07:04:51;17.00;;;4.78;;
51949;SDS011;37974;53.218;6.640;2023-03-13T07:07:17;15.55;;;4.28;;
51949;SDS011;37974;53.218;6.640;2023-03-13T07:09:43;16.00;;;4.40;;
51949;SDS011;37974;53.218;6.640;2023-03-13T07:12:08;16.75;;;5.10;;
51949;SDS011;37974;53.218;6.640;2023-03-13T07:14:34;17.15;;;4.72;;
51949;SDS011;37974;53.218;6.640;2023-03-13T07:17:00;15.90;;;5.32;;
51949;SDS011;37974;53.218;6.640;2023-03-13T07:19:25;18.13;;;4.95;;
51949;SDS011;37974;53.218;6.640;2023-03-13T07:21:51;19.27;;;4.80;;
51949;SDS011;37974;53.218;6.640;2023-03-13T07:24:17;14.20;;;4.22;;
51949;SDS011;37974;53.218;6.640;2023-03-13T07:26:43;18.15;;;4.53;;
51949;SDS011;37974;53.218;6.640;2023-03-13T07:29:09;16.10;;;4.18;;
51949;SDS011;37974;53.218;6.640;2023-03-13T07:31:35;19.90;;;4.45;;
51949;SDS011;37974;53.218;6.640;2023-03-13T07:34:00;18.83;;;4.63;;
51949;SDS011;37974;53.218;6.640;2023-03-13T07:36:26;18.60;;;4.35;;
51949;SDS011;37974;53.218;6.640;2023-03-13T07:38:52;17.55;;;4.82;;
51949;SDS011;37974;53.218;6.640;2023-03-13T07:41:18;14.63;;;3.95;;
51949;SDS011;37974;53.218;6.640;2023-03-13T07:43:44;20.98;;;4.30;;
51949;SDS011;37974;53.218;6.640;2023-03-13T07:46:11;12.05;;;3.88;;
51949;SDS011;37974;53.218;6.640;2023-03-13T07:48:40;13.90;;;4.78;;
51949;SDS011;37974;53.218;6.640;2023-03-13T07:51:09;14.20;;;4.18;;
51949;SDS011;37974;53.218;6.640;2023-03-13T07:53:38;19.13;;;4.75;;
51949;SDS011;37974;53.218;6.640;2023-03-13T07:56:04;14.63;;;4.10;;
51949;SDS011;37974;53.218;6.640;2023-03-13T07:58:33;9.65;;;2.97;;
51949;SDS011;37974;53.218;6.640;2023-03-13T08:01:00;10.25;;;3.30;;
51949;SDS011;37974;53.218;6.640;2023-03-13T08:03:32;15.85;;;3.67;;
51949;SDS011;37974;53.218;6.640;2023-03-13T08:05:59;13.00;;;3.55;;
51949;SDS011;37974;53.218;6.640;2023-03-13T08:08:25;12.40;;;3.38;;
51949;SDS011;37974;53.218;6.640;2023-03-13T08:10:52;13.00;;;3.22;;
51949;SDS011;37974;53.218;6.640;2023-03-13T08:13:17;9.80;;;3.03;;
51949;SDS011;37974;53.218;6.640;2023-03-13T08:15:43;9.85;;;3.10;;
51949;SDS011;37974;53.218;6.640;2023-03-13T08:18:09;14.63;;;3.15;;
51949;SDS011;37974;53.218;6.640;2023-03-13T08:20:35;9.45;;;2.97;;
51949;SDS011;37974;53.218;6.640;2023-03-13T08:23:00;9.88;;;2.70;;
51949;SDS011;37974;53.218;6.640;2023-03-13T08:25:26;10.75;;;2.30;;
51949;SDS011;37974;53.218;6.640;2023-03-13T08:27:52;8.98;;;3.08;;
51949;SDS011;37974;53.218;6.640;2023-03-13T08:30:18;8.48;;;2.30;;
51949;SDS011;37974;53.218;6.640;2023-03-13T08:32:44;9.13;;;2.47;;
51949;SDS011;37974;53.218;6.640;2023-03-13T08:35:10;8.73;;;2.42;;
51949;SDS011;37974;53.218;6.640;2023-03-13T08:37:36;10.32;;;2.35;;
51949;SDS011;37974;53.218;6.640;2023-03-13T08:40:01;10.55;;;2.15;;
51949;SDS011;37974;53.218;6.640;2023-03-13T08:42:28;8.23;;;2.08;;
51949;SDS011;37974;53.218;6.640;2023-03-13T08:44:53;7.88;;;2.03;;
51949;SDS011;37974;53.218;6.640;2023-03-13T08:47:19;8.70;;;1.65;;
51949;SDS011;37974;53.218;6.640;2023-03-13T08:49:45;9.35;;;1.60;;
51949;SDS011;37974;53.218;6.640;2023-03-13T08:52:10;11.50;;;2.00;;
51949;SDS011;37974;53.218;6.640;2023-03-13T08:54:36;10.32;;;1.63;;
51949;SDS011;37974;53.218;6.640;2023-03-13T08:57:02;11.52;;;2.08;;
51949;SDS011;37974;53.218;6.640;2023-03-13T08:59:27;11.20;;;1.88;;
51949;SDS011;37974;53.218;6.640;2023-03-13T09:01:53;6.78;;;1.13;;
51949;SDS011;37974;53.218;6.640;2023-03-13T09:04:28;11.55;;;1.65;;
51949;SDS011;37974;53.218;6.640;2023-03-13T09:06:54;11.85;;;2.00;;
51949;SDS011;37974;53.218;6.640;2023-03-13T09:09:20;5.55;;;1.20;;
51949;SDS011;37974;53.218;6.640;2023-03-13T09:11:46;8.18;;;1.65;;
51949;SDS011;37974;53.218;6.640;2023-03-13T09:14:11;6.93;;;1.60;;
51949;SDS011;37974;53.218;6.640;2023-03-13T09:16:37;7.78;;;1.63;;
51949;SDS011;37974;53.218;6.640;2023-03-13T09:19:03;7.30;;;1.80;;
51949;SDS011;37974;53.218;6.640;2023-03-13T09:21:29;8.48;;;1.95;;
51949;SDS011;37974;53.218;6.640;2023-03-13T09:23:57;10.38;;;1.83;;
51949;SDS011;37974;53.218;6.640;2023-03-13T09:26:23;9.18;;;1.90;;
51949;SDS011;37974;53.218;6.640;2023-03-13T09:28:56;7.93;;;1.60;;
51949;SDS011;37974;53.218;6.640;2023-03-13T09:31:23;14.48;;;2.35;;
51949;SDS011;37974;53.218;6.640;2023-03-13T09:33:51;16.30;;;2.22;;
51949;SDS011;37974;53.218;6.640;2023-03-13T09:36:17;12.48;;;3.25;;
51949;SDS011;37974;53.218;6.640;2023-03-13T09:38:43;11.05;;;2.28;;
51949;SDS011;37974;53.218;6.640;2023-03-13T09:43:46;11.07;;;2.20;;
51949;SDS011;37974;53.218;6.640;2023-03-13T09:46:17;17.40;;;2.33;;
51949;SDS011;37974;53.218;6.640;2023-03-13T09:48:50;13.52;;;2.28;;
51949;SDS011;37974;53.218;6.640;2023-03-13T09:51:27;13.88;;;2.97;;
51949;SDS011;37974;53.218;6.640;2023-03-13T09:53:58;9.50;;;2.08;;
51949;SDS011;37974;53.218;6.640;2023-03-13T09:56:30;16.35;;;3.13;;
51949;SDS011;37974;53.218;6.640;2023-03-13T09:59:05;12.73;;;2.58;;
51949;SDS011;37974;53.218;6.640;2023-03-13T10:01:40;12.73;;;2.63;;
51949;SDS011;37974;53.218;6.640;2023-03-13T10:04:13;17.33;;;2.78;;
51949;SDS011;37974;53.218;6.640;2023-03-13T10:06:59;16.75;;;2.80;;
51949;SDS011;37974;53.218;6.640;2023-03-13T10:09:28;11.57;;;2.60;;
51949;SDS011;37974;53.218;6.640;2023-03-13T10:11:59;18.45;;;3.17;;
51949;SDS011;37974;53.218;6.640;2023-03-13T10:14:37;11.32;;;2.20;;
51949;SDS011;37974;53.218;6.640;2023-03-13T10:17:11;14.55;;;2.67;;
51949;SDS011;37974;53.218;6.640;2023-03-13T10:19:55;13.40;;;2.50;;
51949;SDS011;37974;53.218;6.640;2023-03-13T10:22:25;17.15;;;2.90;;
51949;SDS011;37974;53.218;6.640;2023-03-13T10:24:57;21.98;;;3.30;;
51949;SDS011;37974;53.218;6.640;2023-03-13T10:27:25;16.58;;;3.40;;
51949;SDS011;37974;53.218;6.640;2023-03-13T10:29:51;18.67;;;3.33;;
51949;SDS011;37974;53.218;6.640;2023-03-13T10:32:16;15.88;;;2.72;;
51949;SDS011;37974;53.218;6.640;2023-03-13T10:34:44;21.70;;;3.42;;
51949;SDS011;37974;53.218;6.640;2023-03-13T10:37:14;24.40;;;3.70;;
51949;SDS011;37974;53.218;6.640;2023-03-13T10:39:43;18.77;;;3.90;;
51949;SDS011;37974;53.218;6.640;2023-03-13T10:42:10;19.23;;;3.80;;
51949;SDS011;37974;53.218;6.640;2023-03-13T10:45:00;16.17;;;3.28;;
51949;SDS011;37974;53.218;6.640;2023-03-13T10:47:29;18.33;;;3.20;;
51949;SDS011;37974;53.218;6.640;2023-03-13T10:49:58;21.17;;;3.83;;
51949;SDS011;37974;53.218;6.640;2023-03-13T10:52:30;21.17;;;3.70;;
51949;SDS011;37974;53.218;6.640;2023-03-13T10:54:59;23.17;;;3.92;;
51949;SDS011;37974;53.218;6.640;2023-03-13T10:57:30;22.77;;;4.10;;
51949;SDS011;37974;53.218;6.640;2023-03-13T10:59:58;19.23;;;3.72;;
51949;SDS011;37974;53.218;6.640;2023-03-13T11:02:33;17.60;;;3.58;;
51949;SDS011;37974;53.218;6.640;2023-03-13T11:05:02;21.17;;;4.03;;
51949;SDS011;37974;53.218;6.640;2023-03-13T11:07:47;25.63;;;4.38;;
51949;SDS011;37974;53.218;6.640;2023-03-13T11:12:45;20.20;;;3.47;;
51949;SDS011;37974;53.218;6.640;2023-03-13T11:15:14;17.40;;;3.15;;
51949;SDS011;37974;53.218;6.640;2023-03-13T11:17:42;15.10;;;3.13;;
51949;SDS011;37974;53.218;6.640;2023-03-13T11:20:20;28.02;;;5.10;;
51949;SDS011;37974;53.218;6.640;2023-03-13T11:22:52;17.73;;;3.40;;
51949;SDS011;37974;53.218;6.640;2023-03-13T11:30:57;13.77;;;2.40;;
51949;SDS011;37974;53.218;6.640;2023-03-13T11:33:37;20.30;;;3.20;;
51949;SDS011;37974;53.218;6.640;2023-03-13T11:36:11;15.57;;;2.90;;
51949;SDS011;37974;53.218;6.640;2023-03-13T11:38:44;13.07;;;2.95;;
51949;SDS011;37974;53.218;6.640;2023-03-13T11:41:18;13.70;;;2.70;;
51949;SDS011;37974;53.218;6.640;2023-03-13T11:44:08;17.52;;;3.13;;
51949;SDS011;37974;53.218;6.640;2023-03-13T11:52:09;14.32;;;2.83;;
51949;SDS011;37974;53.218;6.640;2023-03-13T11:54:57;13.38;;;2.67;;
51949;SDS011;37974;53.218;6.640;2023-03-13T12:00:18;11.48;;;2.28;;
51949;SDS011;37974;53.218;6.640;2023-03-13T12:02:54;14.35;;;2.47;;
51949;SDS011;37974;53.218;6.640;2023-03-13T12:05:29;11.43;;;2.25;;
51949;SDS011;37974;53.218;6.640;2023-03-13T12:08:05;13.13;;;2.88;;
51949;SDS011;37974;53.218;6.640;2023-03-13T12:10:40;19.25;;;3.47;;
51949;SDS011;37974;53.218;6.640;2023-03-13T12:15:47;11.55;;;2.55;;
51949;SDS011;37974;53.218;6.640;2023-03-13T12:18:17;20.98;;;3.17;;
51949;SDS011;37974;53.218;6.640;2023-03-13T12:20:55;16.38;;;2.67;;
51949;SDS011;37974;53.218;6.640;2023-03-13T12:26:13;23.13;;;3.70;;
51949;SDS011;37974;53.218;6.640;2023-03-13T12:31:16;23.98;;;3.80;;
51949;SDS011;37974;53.218;6.640;2023-03-13T12:33:52;18.42;;;2.92;;
51949;SDS011;37974;53.218;6.640;2023-03-13T12:36:29;20.15;;;3.97;;
51949;SDS011;37974;53.218;6.640;2023-03-13T12:39:14;22.35;;;4.05;;
51949;SDS011;37974;53.218;6.640;2023-03-13T12:41:45;19.73;;;3.40;;
51949;SDS011;37974;53.218;6.640;2023-03-13T12:44:18;21.40;;;3.95;;
51949;SDS011;37974;53.218;6.640;2023-03-13T12:46:56;22.00;;;3.70;;
51949;SDS011;37974;53.218;6.640;2023-03-13T12:58:09;19.95;;;3.38;;
51949;SDS011;37974;53.218;6.640;2023-03-13T13:00:40;24.27;;;3.85;;
51949;SDS011;37974;53.218;6.640;2023-03-13T13:05:57;18.92;;;4.00;;
51949;SDS011;37974;53.218;6.640;2023-03-13T13:11:24;19.30;;;3.72;;
51949;SDS011;37974;53.218;6.640;2023-03-13T13:14:00;23.05;;;4.00;;
51949;SDS011;37974;53.218;6.640;2023-03-13T13:16:27;17.60;;;3.55;;
51949;SDS011;37974;53.218;6.640;2023-03-13T13:18:53;17.80;;;3.65;;
51949;SDS011;37974;53.218;6.640;2023-03-13T13:21:20;18.25;;;3.58;;
51949;SDS011;37974;53.218;6.640;2023-03-13T13:23:48;27.30;;;4.15;;
51949;SDS011;37974;53.218;6.640;2023-03-13T13:28:56;22.27;;;4.22;;
51949;SDS011;37974;53.218;6.640;2023-03-13T13:36:57;25.73;;;4.15;;
51949;SDS011;37974;53.218;6.640;2023-03-13T13:47:29;23.27;;;4.80;;
51949;SDS011;37974;53.218;6.640;2023-03-13T13:49:57;27.98;;;5.22;;
51949;SDS011;37974;53.218;6.640;2023-03-13T13:52:34;26.88;;;4.47;;
51949;SDS011;37974;53.218;6.640;2023-03-13T13:55:00;26.52;;;3.83;;
51949;SDS011;37974;53.218;6.640;2023-03-13T13:57:31;24.52;;;4.95;;
51949;SDS011;37974;53.218;6.640;2023-03-13T14:00:13;25.00;;;4.80;;
51949;SDS011;37974;53.218;6.640;2023-03-13T14:02:49;21.10;;;4.22;;
51949;SDS011;37974;53.218;6.640;2023-03-13T14:05:17;25.92;;;5.05;;
51949;SDS011;37974;53.218;6.640;2023-03-13T14:07:53;26.80;;;4.63;;
51949;SDS011;37974;53.218;6.640;2023-03-13T14:10:44;23.45;;;4.35;;
51949;SDS011;37974;53.218;6.640;2023-03-13T14:13:17;29.63;;;4.10;;
51949;SDS011;37974;53.218;6.640;2023-03-13T14:15:46;28.92;;;4.78;;
51949;SDS011;37974;53.218;6.640;2023-03-13T14:18:24;23.15;;;4.35;;
51949;SDS011;37974;53.218;6.640;2023-03-13T14:20:58;27.05;;;5.65;;
51949;SDS011;37974;53.218;6.640;2023-03-13T14:28:37;23.90;;;4.45;;
51949;SDS011;37974;53.218;6.640;2023-03-13T14:31:05;34.22;;;4.78;;
51949;SDS011;37974;53.218;6.640;2023-03-13T14:33:31;24.73;;;4.78;;
51949;SDS011;37974;53.218;6.640;2023-03-13T14:35:58;24.73;;;4.55;;
51949;SDS011;37974;53.218;6.640;2023-03-13T14:38:25;33.20;;;4.72;;
51949;SDS011;37974;53.218;6.640;2023-03-13T14:40:54;25.52;;;5.05;;
51949;SDS011;37974;53.218;6.640;2023-03-13T14:45:59;32.30;;;5.38;;
51949;SDS011;37974;53.218;6.640;2023-03-13T14:48:30;27.70;;;4.88;;
51949;SDS011;37974;53.218;6.640;2023-03-13T14:51:00;23.30;;;4.13;;
51949;SDS011;37974;53.218;6.640;2023-03-13T14:53:27;24.23;;;4.10;;
51949;SDS011;37974;53.218;6.640;2023-03-13T14:56:10;26.20;;;4.55;;
51949;SDS011;37974;53.218;6.640;2023-03-13T14:58:39;28.85;;;4.75;;
51949;SDS011;37974;53.218;6.640;2023-03-13T15:01:13;27.77;;;4.90;;
51949;SDS011;37974;53.218;6.640;2023-03-13T15:03:50;28.83;;;5.32;;
51949;SDS011;37974;53.218;6.640;2023-03-13T15:06:17;34.28;;;4.78;;
51949;SDS011;37974;53.218;6.640;2023-03-13T15:08:46;32.80;;;5.70;;
51949;SDS011;37974;53.218;6.640;2023-03-13T15:11:18;37.42;;;5.38;;
51949;SDS011;37974;53.218;6.640;2023-03-13T15:13:45;29.10;;;5.28;;
51949;SDS011;37974;53.218;6.640;2023-03-13T15:16:13;31.48;;;5.82;;
51949;SDS011;37974;53.218;6.640;2023-03-13T15:18:41;40.67;;;5.82;;
51949;SDS011;37974;53.218;6.640;2023-03-13T15:23:40;28.15;;;4.60;;
51949;SDS011;37974;53.218;6.640;2023-03-13T15:26:06;34.90;;;5.47;;
51949;SDS011;37974;53.218;6.640;2023-03-13T15:28:32;30.50;;;5.95;;
51949;SDS011;37974;53.218;6.640;2023-03-13T15:30:58;32.17;;;5.43;;
51949;SDS011;37974;53.218;6.640;2023-03-13T15:33:25;31.23;;;5.25;;
51949;SDS011;37974;53.218;6.640;2023-03-13T15:35:52;31.10;;;5.63;;
51949;SDS011;37974;53.218;6.640;2023-03-13T15:38:19;33.78;;;5.85;;
51949;SDS011;37974;53.218;6.640;2023-03-13T15:40:47;31.88;;;5.68;;
51949;SDS011;37974;53.218;6.640;2023-03-13T15:43:13;27.17;;;5.50;;
51949;SDS011;37974;53.218;6.640;2023-03-13T15:45:40;31.38;;;5.43;;
51949;SDS011;37974;53.218;6.640;2023-03-13T15:48:11;33.63;;;5.30;;
51949;SDS011;37974;53.218;6.640;2023-03-13T15:53:24;36.25;;;5.88;;
51949;SDS011;37974;53.218;6.640;2023-03-13T15:55:52;25.35;;;5.53;;